createdAt,value
2018-07-12T00:01:55.404Z,45.13
2018-07-12T00:04:22.627Z,42.50
2018-07-12T00:06:49.834Z,48.43
2018-07-12T00:09:17.111Z,53.43
2018-07-12T00:11:44.363Z,45.50
2018-07-12T00:14:11.580Z,46.40
2018-07-12T00:16:38.775Z,44.63
2018-07-12T00:19:05.996Z,42.57
2018-07-12T00:21:33.356Z,45.13
2018-07-12T00:24:00.588Z,43.07
2018-07-12T00:26:27.828Z,43.83
2018-07-12T00:28:55.050Z,47.43
2018-07-12T00:31:22.256Z,44.83
2018-07-12T00:33:49.546Z,48.30
2018-07-12T00:36:16.760Z,43.07
2018-07-12T00:38:44.132Z,47.67
2018-07-12T00:41:11.363Z,53.37
2018-07-12T00:43:38.594Z,51.63
2018-07-12T00:46:05.815Z,43.10
2018-07-12T00:48:33.044Z,52.63
2018-07-12T00:51:00.375Z,53.30
2018-07-12T00:53:28.051Z,60.13
2018-07-12T00:55:55.282Z,59.70
2018-07-12T00:58:22.759Z,48.13
2018-07-12T01:00:49.991Z,49.43
2018-07-12T01:03:17.266Z,57.63
2018-07-12T01:05:44.845Z,55.03
2018-07-12T01:08:12.402Z,57.67
2018-07-12T01:10:39.677Z,46.33
2018-07-12T01:13:07.355Z,50.07
2018-07-12T01:15:34.617Z,49.37
2018-07-12T01:18:01.852Z,51.87
2018-07-12T01:20:29.107Z,64.67
2018-07-12T01:22:56.692Z,63.40
2018-07-12T01:25:24.195Z,66.73
2018-07-12T01:27:51.658Z,65.07
2018-07-12T01:30:18.941Z,67.07
2018-07-12T01:32:46.151Z,77.20
2018-07-12T01:35:13.672Z,68.47
2018-07-12T01:37:41.755Z,72.73
2018-07-12T01:40:09.796Z,61.97
2018-07-12T01:42:37.024Z,65.87
2018-07-12T01:45:04.496Z,78.27
2018-07-12T01:47:31.745Z,71.60
2018-07-12T01:49:58.987Z,69.00
2018-07-12T01:52:26.253Z,62.17
2018-07-12T01:54:53.449Z,60.67
2018-07-12T01:57:20.686Z,65.67
2018-07-12T01:59:47.930Z,59.93
2018-07-12T02:02:15.179Z,59.30
2018-07-12T02:04:42.382Z,60.47
2018-07-12T02:07:09.650Z,46.47
2018-07-12T02:09:36.871Z,38.70
2018-07-12T02:12:04.091Z,44.17
2018-07-12T02:14:31.395Z,39.60
2018-07-12T02:16:58.622Z,52.43
2018-07-12T02:19:25.798Z,59.60
2018-07-12T02:21:53.077Z,64.07
2018-07-12T02:24:20.930Z,62.23
2018-07-12T02:26:48.131Z,65.33
2018-07-12T02:29:15.359Z,62.83
2018-07-12T02:31:42.589Z,59.07
2018-07-12T02:34:09.840Z,67.23
2018-07-12T02:36:37.036Z,62.07
2018-07-12T02:39:04.784Z,62.57
2018-07-12T02:41:32.047Z,64.00
2018-07-12T02:43:59.720Z,63.17
2018-07-12T02:46:26.931Z,62.07
2018-07-12T02:48:54.174Z,60.37
2018-07-12T02:51:21.536Z,64.63
2018-07-12T02:53:48.763Z,68.07
2018-07-12T02:56:16.013Z,69.27
2018-07-12T02:58:43.250Z,69.10
2018-07-12T03:01:11.913Z,66.13
2018-07-12T03:03:39.132Z,65.03
2018-07-12T03:06:06.368Z,58.37
2018-07-12T03:08:33.639Z,65.13
2018-07-12T03:11:01.088Z,59.30
2018-07-12T03:13:28.331Z,54.77
2018-07-12T03:15:55.579Z,52.33
2018-07-12T03:18:22.854Z,41.87
2018-07-12T03:20:50.083Z,41.03
2018-07-12T03:23:17.455Z,39.37
2018-07-12T03:25:44.718Z,42.83
2018-07-12T03:28:12.162Z,54.93
2018-07-12T03:30:39.553Z,41.93
2018-07-12T03:33:06.783Z,41.00
2018-07-12T03:35:34.033Z,43.63
2018-07-12T03:38:01.257Z,50.97
2018-07-12T03:40:28.483Z,53.00
2018-07-12T03:42:55.720Z,50.70
2018-07-12T03:45:22.945Z,44.97
2018-07-12T03:47:50.185Z,48.90
2018-07-12T03:50:17.394Z,55.57
2018-07-12T03:52:44.652Z,67.57
2018-07-12T03:55:11.894Z,63.03
2018-07-12T03:57:39.147Z,61.90
2018-07-12T04:00:06.393Z,78.33
2018-07-12T04:02:33.588Z,88.03
2018-07-12T04:05:00.844Z,77.90
2018-07-12T04:07:28.908Z,90.77
2018-07-12T04:09:56.378Z,80.23
2018-07-12T04:12:23.580Z,80.60
2018-07-12T04:14:50.803Z,84.83
2018-07-12T04:17:33.454Z,95.67
2018-07-12T04:20:01.995Z,82.47
2018-07-12T04:22:30.507Z,88.93
2018-07-12T04:24:57.737Z,84.43
2018-07-12T04:27:25.281Z,86.93
2018-07-12T04:29:54.543Z,93.90
2018-07-12T04:32:21.755Z,93.10
2018-07-12T04:34:49.569Z,79.20
2018-07-12T04:37:17.025Z,71.73
2018-07-12T04:39:44.417Z,63.33
2018-07-12T04:42:11.634Z,58.07
2018-07-12T04:44:38.886Z,62.30
2018-07-12T04:47:06.119Z,63.77
2018-07-12T04:49:34.335Z,60.83
2018-07-12T04:52:01.884Z,39.27
2018-07-12T04:54:29.445Z,31.53
2018-07-12T04:56:56.639Z,33.20
2018-07-12T04:59:23.919Z,34.77
2018-07-12T05:01:51.168Z,32.90
2018-07-12T05:04:18.418Z,42.13
2018-07-12T05:06:45.651Z,38.17
2018-07-12T05:09:12.855Z,40.67
2018-07-12T05:11:40.079Z,38.40
2018-07-12T05:14:07.286Z,35.97
2018-07-12T05:16:34.517Z,42.17
2018-07-12T05:19:01.739Z,34.33
2018-07-12T05:21:29.214Z,28.57
2018-07-12T05:23:56.426Z,26.30
2018-07-12T05:26:23.626Z,22.50
2018-07-12T05:28:50.863Z,19.95
2018-07-12T05:31:18.097Z,27.70
2018-07-12T05:33:45.355Z,23.52
2018-07-12T05:36:42.525Z,22.52
2018-07-12T05:39:10.785Z,25.27
2018-07-12T05:41:39.014Z,26.97
2018-07-12T05:44:07.435Z,25.13
2018-07-12T05:46:35.760Z,26.70
2018-07-12T05:49:03.975Z,24.87
2018-07-12T05:51:32.220Z,24.35
2018-07-12T05:54:00.524Z,25.52
2018-07-12T05:56:28.811Z,23.47
2018-07-12T05:58:57.106Z,18.30
2018-07-12T06:01:37.272Z,17.32
2018-07-12T06:04:05.695Z,14.85
2018-07-12T06:06:33.924Z,14.65
2018-07-12T06:09:02.192Z,13.22
2018-07-12T06:11:30.439Z,12.78
2018-07-12T06:13:58.676Z,12.95
2018-07-12T06:16:26.891Z,13.48
2018-07-12T06:18:55.227Z,13.15
2018-07-12T06:21:23.460Z,14.23
2018-07-12T06:23:53.259Z,12.28
2018-07-12T06:26:21.546Z,14.78
2018-07-12T06:28:49.776Z,13.30
2018-07-12T06:31:18.132Z,16.52
2018-07-12T06:33:46.383Z,13.85
2018-07-12T06:36:14.643Z,12.93
2018-07-12T06:38:43.021Z,15.53
2018-07-12T06:41:11.395Z,13.55
2018-07-12T06:43:39.792Z,14.35
2018-07-12T06:46:08.445Z,15.40
2018-07-12T06:48:36.909Z,13.32
2018-07-12T06:51:05.256Z,13.78
2018-07-12T06:53:33.627Z,14.28
2018-07-12T06:56:01.931Z,16.90
2018-07-12T06:58:30.230Z,21.57
2018-07-12T07:00:58.695Z,15.68
2018-07-12T07:03:26.980Z,15.13
2018-07-12T07:05:56.145Z,14.40
2018-07-12T07:08:24.373Z,14.50
2018-07-12T07:10:52.661Z,13.70
2018-07-12T07:13:20.926Z,13.88
2018-07-12T07:15:49.183Z,13.38
2018-07-12T07:18:17.487Z,11.93
2018-07-12T07:20:45.760Z,8.28
2018-07-12T07:23:13.991Z,8.85
2018-07-12T07:25:42.302Z,8.70
2018-07-12T07:28:10.559Z,6.33
2018-07-12T07:30:40.706Z,5.37
2018-07-12T07:33:09.343Z,7.95
2018-07-12T07:35:37.918Z,7.25
2018-07-12T07:38:06.161Z,8.13
2018-07-12T07:40:34.582Z,6.80
2018-07-12T07:43:02.929Z,8.48
2018-07-12T07:45:31.110Z,6.92
2018-07-12T07:47:59.363Z,6.10
2018-07-12T07:53:26.823Z,7.80
2018-07-12T07:55:55.056Z,6.65
2018-07-12T07:58:23.331Z,6.28
2018-07-12T08:00:51.547Z,6.47
2018-07-12T08:03:19.800Z,5.12
2018-07-12T08:05:48.019Z,5.83
2018-07-12T08:08:16.283Z,7.40
2018-07-12T08:10:44.783Z,5.83
2018-07-12T08:13:13.242Z,4.37
2018-07-12T08:15:41.895Z,4.15
2018-07-12T08:18:13.219Z,4.20
2018-07-12T08:20:41.828Z,5.05
2018-07-12T08:23:10.522Z,5.70
2018-07-12T08:25:39.168Z,8.15
2018-07-12T08:28:20.183Z,7.37
2018-07-12T08:30:48.432Z,7.87
2018-07-12T08:33:16.858Z,8.30
2018-07-12T08:35:45.133Z,7.40
2018-07-12T08:38:13.475Z,7.72
2018-07-12T08:40:42.631Z,6.90
2018-07-12T08:43:12.167Z,6.35
2018-07-12T08:45:40.429Z,6.05
2018-07-12T08:48:08.712Z,6.80
2018-07-12T08:50:37.028Z,7.45
2018-07-12T08:53:05.649Z,6.50
2018-07-12T08:55:33.842Z,6.70
2018-07-12T08:58:02.818Z,5.65
2018-07-12T09:00:32.775Z,5.90
2018-07-12T09:03:00.999Z,5.70
2018-07-12T09:05:29.580Z,5.30
2018-07-12T09:07:57.890Z,5.92
2018-07-12T09:10:26.306Z,4.58
2018-07-12T09:12:54.710Z,5.35
2018-07-12T09:15:23.557Z,4.00
2018-07-12T09:17:51.963Z,4.03
2018-07-12T09:20:20.335Z,4.97
2018-07-12T09:22:48.762Z,3.77
2018-07-12T09:25:17.746Z,3.90
2018-07-12T09:27:46.094Z,2.65
2018-07-12T09:30:14.480Z,4.03
2018-07-12T09:32:43.223Z,3.17
2018-07-12T09:35:12.055Z,4.35
2018-07-12T09:37:40.455Z,4.53
2018-07-12T09:40:08.747Z,4.55
2018-07-12T09:42:37.598Z,4.17
2018-07-12T09:45:05.959Z,3.55
2018-07-12T09:47:34.315Z,2.55
2018-07-12T09:50:02.761Z,2.50
2018-07-12T09:52:33.294Z,2.83
2018-07-12T09:55:02.439Z,2.70
2018-07-12T09:57:42.671Z,2.75
2018-07-12T10:00:10.946Z,5.28
2018-07-12T10:02:44.568Z,3.20
2018-07-12T10:05:18.392Z,2.85
2018-07-12T10:07:50.568Z,2.70
2018-07-12T10:10:19.707Z,3.90
2018-07-12T10:12:53.726Z,2.70
2018-07-12T10:15:27.324Z,3.42
2018-07-12T10:18:01.140Z,2.08
2018-07-12T10:20:29.356Z,2.30
2018-07-12T10:22:57.574Z,3.35
2018-07-12T10:25:26.037Z,2.70
2018-07-12T10:27:54.245Z,2.15
2018-07-12T10:30:22.483Z,1.80
2018-07-12T10:32:50.956Z,1.90
2018-07-12T10:35:19.212Z,1.70
2018-07-12T10:37:47.447Z,1.98
2018-07-12T10:40:15.661Z,1.50
2018-07-12T10:42:43.910Z,1.50
2018-07-12T10:45:12.484Z,2.08
2018-07-12T10:47:40.763Z,2.25
2018-07-12T10:50:09.351Z,2.45
2018-07-12T10:52:37.555Z,3.55
2018-07-12T10:55:06.711Z,2.22
2018-07-12T10:57:34.900Z,1.90
2018-07-12T11:00:03.217Z,1.60
2018-07-12T11:02:31.527Z,2.58
2018-07-12T11:04:59.739Z,1.90
2018-07-12T11:07:27.940Z,2.45
2018-07-12T11:09:56.172Z,2.22
2018-07-12T11:12:24.379Z,2.67
2018-07-12T11:14:52.827Z,2.08
2018-07-12T11:17:21.103Z,3.33
2018-07-12T11:19:49.378Z,1.60
2018-07-12T11:22:17.755Z,1.77
2018-07-12T11:24:46.029Z,1.82
2018-07-12T11:27:14.375Z,1.62
2018-07-12T11:29:54.521Z,2.58
2018-07-12T11:32:22.759Z,1.72
2018-07-12T11:34:51.400Z,1.70
2018-07-12T11:37:23.059Z,2.20
2018-07-12T11:39:51.755Z,3.77
2018-07-12T11:42:20.311Z,2.42
2018-07-12T11:44:49.577Z,1.70
2018-07-12T11:47:19.114Z,1.77
2018-07-12T11:49:47.427Z,1.67
2018-07-12T11:52:16.051Z,1.55
2018-07-12T11:54:44.375Z,1.57
2018-07-12T11:57:12.671Z,1.55
2018-07-12T11:59:41.034Z,1.62
2018-07-12T12:02:09.291Z,1.45
2018-07-12T12:04:37.528Z,1.82
2018-07-12T12:07:05.774Z,2.00
2018-07-12T12:09:34.255Z,1.70
2018-07-12T12:12:02.447Z,2.67
2018-07-12T12:14:30.663Z,1.22
2018-07-12T12:16:59.287Z,1.90
2018-07-12T12:19:58.265Z,9.93
2018-07-12T12:22:26.511Z,1.72
2018-07-12T12:24:54.882Z,1.37
2018-07-12T12:27:23.101Z,1.45
2018-07-12T12:29:51.426Z,1.37
2018-07-12T12:32:19.831Z,1.40
2018-07-12T12:34:48.007Z,1.42
2018-07-12T12:37:16.275Z,3.08
2018-07-12T12:39:44.631Z,1.45
2018-07-12T12:42:12.878Z,1.70
2018-07-12T12:44:41.202Z,2.00
2018-07-12T12:47:09.505Z,1.70
2018-07-12T12:49:37.750Z,1.80
2018-07-12T12:52:06.087Z,2.58
2018-07-12T12:54:34.362Z,2.35
2018-07-12T12:57:02.607Z,1.82
2018-07-12T12:59:32.657Z,1.98
2018-07-12T13:02:01.133Z,1.47
2018-07-12T13:04:29.591Z,1.70
2018-07-12T13:06:57.691Z,1.42
2018-07-12T13:09:26.129Z,1.50
2018-07-12T13:11:54.364Z,5.87
2018-07-12T13:14:22.637Z,1.30
2018-07-12T13:16:51.276Z,1.35
2018-07-12T13:19:19.505Z,1.90
2018-07-12T13:21:47.811Z,2.47
2018-07-12T13:24:16.135Z,3.25
2018-07-12T13:26:44.370Z,1.80
2018-07-12T13:29:12.628Z,2.05
2018-07-12T13:31:41.474Z,2.20
2018-07-12T13:34:09.975Z,1.77
2018-07-12T13:36:38.953Z,1.70
2018-07-12T13:39:08.115Z,1.30
2018-07-12T13:41:36.636Z,2.45
2018-07-12T13:44:18.593Z,1.40
2018-07-12T13:46:47.842Z,1.62
2018-07-12T13:49:16.188Z,1.40
2018-07-12T13:51:46.176Z,2.92
2018-07-12T13:54:14.391Z,1.60
2018-07-12T13:56:42.731Z,2.60
2018-07-12T13:59:11.316Z,2.92
2018-07-12T14:01:39.599Z,1.30
2018-07-12T14:04:09.857Z,1.98
2018-07-12T14:06:38.208Z,2.02
2018-07-12T14:09:08.843Z,1.80
2018-07-12T14:11:37.167Z,1.50
2018-07-12T14:14:06.805Z,1.70
2018-07-12T14:16:35.036Z,3.95
2018-07-12T14:19:03.339Z,1.20
2018-07-12T14:21:31.612Z,1.50
2018-07-12T14:23:59.908Z,1.80
2018-07-12T14:26:28.148Z,1.57
2018-07-12T14:28:56.375Z,1.20
2018-07-12T14:31:24.594Z,1.40
2018-07-12T14:33:53.319Z,1.35
2018-07-12T14:36:21.542Z,1.40
2018-07-12T14:38:49.736Z,2.22
2018-07-12T14:41:17.955Z,2.17
2018-07-12T14:43:46.214Z,1.60
2018-07-12T14:46:15.039Z,1.82
2018-07-12T14:48:43.338Z,1.85
2018-07-12T14:51:11.588Z,1.95
2018-07-12T14:53:39.783Z,1.82
2018-07-12T14:56:07.991Z,1.50
2018-07-12T14:58:36.691Z,2.00
2018-07-12T15:01:04.872Z,1.40
2018-07-12T15:03:33.166Z,1.60
2018-07-12T15:06:01.445Z,2.45
2018-07-12T15:08:29.640Z,1.62
2018-07-12T15:10:58.195Z,6.42
2018-07-12T15:13:26.748Z,1.60
2018-07-12T15:15:55.080Z,1.47
2018-07-12T15:18:23.283Z,1.20
2018-07-12T15:20:51.628Z,1.30
2018-07-12T15:23:19.916Z,1.50
2018-07-12T15:25:48.180Z,2.05
2018-07-12T15:28:16.421Z,1.37
2018-07-12T15:30:44.714Z,1.40
2018-07-12T15:33:13.000Z,1.30
2018-07-12T15:35:41.250Z,5.60
2018-07-12T15:38:09.967Z,1.40
2018-07-12T15:40:38.288Z,2.12
2018-07-12T15:43:06.540Z,1.30
2018-07-12T15:45:36.696Z,2.10
2018-07-12T15:48:04.929Z,1.42
2018-07-12T15:50:33.144Z,3.58
2018-07-12T15:53:01.438Z,1.40
2018-07-12T15:55:29.652Z,1.47
2018-07-12T15:57:57.929Z,2.00
2018-07-12T16:00:26.193Z,1.87
2018-07-12T16:02:54.505Z,1.67
2018-07-12T16:05:22.752Z,1.65
2018-07-12T16:07:51.001Z,1.70
2018-07-12T16:10:19.332Z,2.85
2018-07-12T16:12:47.551Z,1.80
2018-07-12T16:15:15.927Z,2.62
2018-07-12T16:17:44.195Z,1.25
2018-07-12T16:20:12.455Z,1.50
2018-07-12T16:22:40.704Z,4.65
2018-07-12T16:25:09.024Z,3.42
2018-07-12T16:27:37.244Z,1.47
2018-07-12T16:30:05.943Z,1.50
2018-07-12T16:32:34.120Z,1.35
2018-07-12T16:35:02.690Z,3.75
2018-07-12T16:37:30.912Z,1.15
2018-07-12T16:39:59.099Z,1.60
2018-07-12T16:42:27.402Z,1.60
2018-07-12T16:44:55.591Z,1.40
2018-07-12T16:47:23.851Z,1.90
2018-07-12T16:49:52.154Z,2.50
2018-07-12T16:52:20.330Z,2.40
2018-07-12T16:54:50.504Z,2.22
2018-07-12T16:57:18.822Z,3.45
2018-07-12T16:59:47.090Z,1.60
2018-07-12T17:02:15.345Z,2.10
2018-07-12T17:04:43.578Z,2.95
2018-07-12T17:07:11.883Z,1.82
2018-07-12T17:09:40.116Z,1.80
2018-07-12T17:12:08.368Z,3.25
2018-07-12T17:14:36.692Z,2.15
2018-07-12T17:17:04.920Z,1.70
2018-07-12T17:19:33.203Z,2.10
2018-07-12T17:22:01.344Z,1.72
2018-07-12T17:24:29.863Z,1.92
2018-07-12T17:26:58.316Z,1.80
2018-07-12T17:29:26.508Z,1.95
2018-07-12T17:31:54.763Z,2.35
2018-07-12T17:34:22.987Z,2.90
2018-07-12T17:36:51.375Z,4.65
2018-07-12T17:39:19.977Z,2.10
2018-07-12T17:41:48.201Z,2.12
2018-07-12T17:44:16.403Z,2.33
2018-07-12T17:46:44.679Z,2.30
2018-07-12T17:49:12.911Z,1.87
2018-07-12T17:51:41.580Z,4.45
2018-07-12T17:54:09.814Z,2.65
2018-07-12T17:56:38.591Z,2.35
2018-07-12T17:59:07.107Z,2.22
2018-07-12T18:01:35.999Z,2.25
2018-07-12T18:04:04.305Z,2.87
2018-07-12T18:06:34.250Z,2.33
2018-07-12T18:09:02.813Z,2.05
2018-07-12T18:11:32.617Z,2.05
2018-07-12T18:14:00.895Z,2.47
2018-07-12T18:16:29.194Z,2.62
2018-07-12T18:18:57.458Z,2.20
2018-07-12T18:21:25.716Z,2.10
2018-07-12T18:23:54.352Z,2.10
2018-07-12T18:26:22.555Z,2.22
2018-07-12T18:28:50.811Z,2.60
2018-07-12T18:31:19.156Z,2.12
2018-07-12T18:33:47.400Z,2.05
2018-07-12T18:36:15.694Z,1.90
2018-07-12T18:38:43.954Z,3.75
2018-07-12T18:41:11.924Z,2.55
2018-07-12T18:43:40.701Z,3.27
2018-07-12T18:46:08.857Z,2.10
2018-07-12T18:48:37.303Z,2.00
2018-07-12T18:51:06.435Z,2.60
2018-07-12T18:53:34.727Z,2.72
2018-07-12T18:56:03.298Z,2.30
2018-07-12T18:58:31.636Z,2.85
2018-07-12T19:00:59.907Z,3.33
2018-07-12T19:03:28.179Z,2.92
2018-07-12T19:05:56.813Z,3.08
2018-07-12T19:08:25.496Z,4.65
2018-07-12T19:10:53.764Z,5.22
2018-07-12T19:13:22.139Z,3.40
2018-07-12T19:15:50.691Z,9.40
2018-07-12T19:18:19.004Z,4.67
2018-07-12T19:20:48.177Z,6.05
2018-07-12T19:23:16.683Z,10.08
2018-07-12T19:25:44.999Z,6.33
2018-07-12T19:28:13.261Z,6.22
2018-07-12T19:30:41.529Z,5.92
2018-07-12T19:33:09.790Z,6.05
2018-07-12T19:35:38.109Z,6.83
2018-07-12T19:38:06.439Z,6.15
2018-07-12T19:40:35.029Z,6.50
2018-07-12T19:43:04.904Z,7.55
2018-07-12T19:45:34.072Z,6.90
2018-07-12T19:48:02.431Z,6.22
2018-07-12T19:50:30.903Z,5.60
2018-07-12T19:52:59.365Z,5.35
2018-07-12T19:55:27.674Z,5.35
2018-07-12T19:57:55.943Z,4.70
2018-07-12T20:00:25.288Z,5.70
2018-07-12T20:02:53.558Z,4.53
2018-07-12T20:05:22.042Z,5.58
2018-07-12T20:07:50.320Z,10.82
2018-07-12T20:10:18.672Z,6.33
2018-07-12T20:12:46.945Z,5.53
2018-07-12T20:15:15.276Z,5.47
2018-07-12T20:17:43.600Z,7.72
2018-07-12T20:20:11.831Z,5.95
2018-07-12T20:22:40.254Z,6.25
2018-07-12T20:25:08.229Z,5.83
2018-07-12T20:27:36.525Z,5.45
2018-07-12T20:30:05.207Z,7.42
2018-07-12T20:32:33.447Z,7.85
2018-07-12T20:35:01.785Z,5.25
2018-07-12T20:37:30.192Z,5.47
2018-07-12T20:39:58.497Z,5.75
2018-07-12T20:42:26.753Z,5.73
2018-07-12T20:44:55.102Z,5.85
2018-07-12T20:47:23.596Z,6.20
2018-07-12T20:49:52.560Z,6.08
2018-07-12T20:52:20.812Z,5.80
2018-07-12T20:54:49.105Z,8.00
2018-07-12T20:57:17.637Z,5.97
2018-07-12T20:59:45.870Z,5.58
2018-07-12T21:02:14.131Z,5.53
2018-07-12T21:04:42.370Z,6.00
2018-07-12T21:07:10.618Z,5.55
2018-07-12T21:09:38.913Z,5.30
2018-07-12T21:12:07.307Z,6.78
2018-07-12T21:14:35.638Z,7.53
2018-07-12T21:17:04.326Z,5.30
2018-07-12T21:19:32.629Z,5.83
2018-07-12T21:22:01.713Z,5.62
2018-07-12T21:24:29.947Z,5.80
2018-07-12T21:26:58.250Z,6.08
2018-07-12T21:29:26.539Z,7.53
2018-07-12T21:31:54.752Z,5.78
2018-07-12T21:34:22.947Z,5.22
2018-07-12T21:36:51.243Z,5.37
2018-07-12T21:39:19.557Z,5.55
2018-07-12T21:41:47.892Z,5.90
2018-07-12T21:44:16.228Z,6.75
2018-07-12T21:46:45.298Z,5.62
2018-07-12T21:49:13.635Z,7.42
2018-07-12T21:51:43.012Z,5.83
2018-07-12T21:54:11.712Z,6.20
2018-07-12T21:56:45.240Z,6.45
2018-07-12T21:59:13.635Z,6.12
2018-07-12T22:01:42.701Z,7.35
2018-07-12T22:04:10.953Z,5.53
2018-07-12T22:11:03.458Z,5.97
2018-07-12T22:13:32.617Z,7.20
2018-07-12T22:16:00.864Z,6.90
2018-07-12T22:18:29.158Z,6.78
2018-07-12T22:20:57.427Z,9.55
2018-07-12T22:23:25.677Z,6.78
2018-07-12T22:25:54.254Z,6.67
2018-07-12T22:28:22.415Z,6.78
2018-07-12T22:30:50.632Z,6.12
2018-07-12T22:33:18.829Z,5.95
2018-07-12T22:35:47.163Z,7.60
2018-07-12T22:38:15.800Z,6.90
2018-07-12T22:40:44.000Z,6.83
2018-07-12T22:43:12.243Z,7.10
2018-07-12T22:45:40.428Z,6.80
2018-07-12T22:48:08.689Z,6.67
2018-07-12T22:50:36.829Z,7.33
2018-07-12T22:53:05.144Z,7.77
2018-07-12T22:55:33.392Z,8.43
2018-07-12T22:58:01.624Z,8.03
2018-07-12T23:00:29.908Z,7.53
2018-07-12T23:02:58.144Z,7.60
2018-07-12T23:05:26.456Z,8.00
2018-07-12T23:07:54.695Z,11.10
2018-07-12T23:10:23.649Z,9.23
2018-07-12T23:12:51.863Z,8.53
2018-07-12T23:15:20.112Z,8.50
2018-07-12T23:17:48.740Z,8.40
2018-07-12T23:20:16.924Z,8.90
2018-07-12T23:22:45.152Z,9.00
2018-07-12T23:25:13.393Z,9.33
2018-07-12T23:27:41.601Z,9.80
2018-07-12T23:30:09.870Z,9.70
2018-07-12T23:32:38.108Z,8.70
2018-07-12T23:35:06.303Z,9.30
2018-07-12T23:37:34.845Z,9.40
2018-07-12T23:40:03.154Z,9.00
2018-07-12T23:42:31.980Z,10.77
2018-07-12T23:45:00.199Z,9.03
2018-07-12T23:47:28.424Z,9.77
2018-07-12T23:49:56.641Z,10.47
2018-07-12T23:52:25.521Z,9.87
2018-07-12T23:54:53.986Z,11.03
2018-07-12T23:57:22.223Z,9.73
2018-07-12T23:59:50.423Z,9.10
